sensor_id;sensor_type;location;lat;lon;timestamp;pressure;altitude;pressure_sealevel;temperature;humidity
75585;BME280;64162;53.508;10.476;2023-03-01T00:01:05;102704.50;;;-1.05;69.70
75585;BME280;64162;53.508;10.476;2023-03-01T00:03:32;102708.81;;;-1.07;68.98
75585;BME280;64162;53.508;10.476;2023-03-01T00:06:00;102702.78;;;-1.09;69.15
75585;BME280;64162;53.508;10.476;2023-03-01T00:08:27;102696.75;;;-1.09;69.59
75585;BME280;64162;53.508;10.476;2023-03-01T00:11:04;102694.16;;;-1.11;69.57
75585;BME280;64162;53.508;10.476;2023-03-01T00:13:32;102695.88;;;-1.14;69.11
75585;BME280;64162;53.508;10.476;2023-03-01T00:15:58;102689.84;;;-1.10;69.41
75585;BME280;64162;53.508;10.476;2023-03-01T00:18:25;102697.59;;;-1.12;69.62
75585;BME280;64162;53.508;10.476;2023-03-01T00:20:53;102700.19;;;-1.15;69.10
75585;BME280;64162;53.508;10.476;2023-03-01T00:23:20;102701.91;;;-1.15;69.50
75585;BME280;64162;53.508;10.476;2023-03-01T00:25:47;102696.72;;;-1.12;69.52
75585;BME280;64162;53.508;10.476;2023-03-01T00:28:15;102689.84;;;-1.01;69.45
75585;BME280;64162;53.508;10.476;2023-03-01T00:30:42;102699.34;;;-1.00;69.68
75585;BME280;64162;53.508;10.476;2023-03-01T00:33:08;102697.63;;;-0.96;69.52
75585;BME280;64162;53.508;10.476;2023-03-01T00:35:35;102696.75;;;-0.97;70.11
75585;BME280;64162;53.508;10.476;2023-03-01T00:38:02;102693.28;;;-1.02;70.30
75585;BME280;64162;53.508;10.476;2023-03-01T00:40:32;102703.66;;;-0.94;70.22
75585;BME280;64162;53.508;10.476;2023-03-01T00:42:59;102700.19;;;-1.00;69.73
75585;BME280;64162;53.508;10.476;2023-03-01T00:45:26;102697.59;;;-1.04;70.02
75585;BME280;64162;53.508;10.476;2023-03-01T00:47:53;102695.00;;;-1.10;69.57
75585;BME280;64162;53.508;10.476;2023-03-01T00:50:20;102693.31;;;-1.17;70.32
75585;BME280;64162;53.508;10.476;2023-03-01T00:52:46;102690.72;;;-1.17;69.92
75585;BME280;64162;53.508;10.476;2023-03-01T00:55:13;102688.13;;;-1.19;70.09
75585;BME280;64162;53.508;10.476;2023-03-01T00:57:39;102700.19;;;-1.15;69.99
75585;BME280;64162;53.508;10.476;2023-03-01T01:00:07;102691.56;;;-1.15;69.69
75585;BME280;64162;53.508;10.476;2023-03-01T01:02:35;102689.88;;;-1.16;69.61
75585;BME280;64162;53.508;10.476;2023-03-01T01:05:02;102687.28;;;-1.16;69.78
75585;BME280;64162;53.508;10.476;2023-03-01T01:07:29;102689.84;;;-1.12;69.80
75585;BME280;64162;53.508;10.476;2023-03-01T01:09:55;102679.50;;;-1.15;69.73
75585;BME280;64162;53.508;10.476;2023-03-01T01:12:22;102691.56;;;-1.14;69.93
75585;BME280;64162;53.508;10.476;2023-03-01T01:14:49;102687.28;;;-1.18;69.57
75585;BME280;64162;53.508;10.476;2023-03-01T01:17:15;102681.25;;;-1.21;69.54
75585;BME280;64162;53.508;10.476;2023-03-01T01:19:44;102678.63;;;-1.27;69.42
75585;BME280;64162;53.508;10.476;2023-03-01T01:22:11;102679.50;;;-1.28;69.35
75585;BME280;64162;53.508;10.476;2023-03-01T01:24:37;102676.06;;;-1.27;69.61
75585;BME280;64162;53.508;10.476;2023-03-01T01:27:04;102675.19;;;-1.22;70.32
75585;BME280;64162;53.508;10.476;2023-03-01T01:29:30;102655.38;;;-1.24;69.56
75585;BME280;64162;53.508;10.476;2023-03-01T01:31:57;102657.97;;;-1.24;69.26
75585;BME280;64162;53.508;10.476;2023-03-01T01:34:23;102663.13;;;-1.26;69.56
75585;BME280;64162;53.508;10.476;2023-03-01T01:36:51;102657.09;;;-1.29;69.46
75585;BME280;64162;53.508;10.476;2023-03-01T01:39:21;102653.63;;;-1.36;68.71
75585;BME280;64162;53.508;10.476;2023-03-01T01:41:48;102652.78;;;-1.34;69.67
75585;BME280;64162;53.508;10.476;2023-03-01T01:44:21;102644.16;;;-1.33;69.80
75585;BME280;64162;53.508;10.476;2023-03-01T01:47:01;102648.47;;;-1.31;69.44
75585;BME280;64162;53.508;10.476;2023-03-01T01:52:18;102639.84;;;-1.38;69.96
75585;BME280;64162;53.508;10.476;2023-03-01T01:54:53;102639.84;;;-1.35;69.31
75585;BME280;64162;53.508;10.476;2023-03-01T01:57:32;102643.28;;;-1.36;69.27
75585;BME280;64162;53.508;10.476;2023-03-01T02:00:05;102648.47;;;-1.36;69.31
75585;BME280;64162;53.508;10.476;2023-03-01T02:02:39;102644.16;;;-1.39;69.75
75585;BME280;64162;53.508;10.476;2023-03-01T02:05:20;102646.72;;;-1.42;69.62
75585;BME280;64162;53.508;10.476;2023-03-01T02:07:51;102651.03;;;-1.45;69.24
75585;BME280;64162;53.508;10.476;2023-03-01T02:10:20;102645.84;;;-1.50;69.19
75585;BME280;64162;53.508;10.476;2023-03-01T02:12:47;102636.38;;;-1.52;69.25
75585;BME280;64162;53.508;10.476;2023-03-01T02:15:13;102632.06;;;-1.52;69.52
75585;BME280;64162;53.508;10.476;2023-03-01T02:17:40;102626.88;;;-1.55;69.59
75585;BME280;64162;53.508;10.476;2023-03-01T02:20:19;102626.06;;;-1.40;69.64
75585;BME280;64162;53.508;10.476;2023-03-01T02:22:49;102624.34;;;-1.32;69.45
75585;BME280;64162;53.508;10.476;2023-03-01T02:27:58;102617.44;;;-1.25;69.07
75585;BME280;64162;53.508;10.476;2023-03-01T02:30:31;102626.94;;;-1.21;69.32
75585;BME280;64162;53.508;10.476;2023-03-01T02:32:58;102614.00;;;-1.18;68.80
75585;BME280;64162;53.508;10.476;2023-03-01T02:35:35;102615.69;;;-1.14;68.64
75585;BME280;64162;53.508;10.476;2023-03-01T02:38:06;102618.28;;;-1.08;68.81
75585;BME280;64162;53.508;10.476;2023-03-01T02:40:36;102613.13;;;-1.10;69.37
75585;BME280;64162;53.508;10.476;2023-03-01T02:43:06;102620.00;;;-1.06;69.66
75585;BME280;64162;53.508;10.476;2023-03-01T02:45:34;102618.28;;;-1.04;69.09
75585;BME280;64162;53.508;10.476;2023-03-01T02:48:01;102610.53;;;-1.05;69.21
75585;BME280;64162;53.508;10.476;2023-03-01T02:53:16;102615.69;;;-1.05;68.68
75585;BME280;64162;53.508;10.476;2023-03-01T02:55:48;102607.06;;;-1.15;69.16
75585;BME280;64162;53.508;10.476;2023-03-01T02:58:15;102614.00;;;-1.18;68.95
75585;BME280;64162;53.508;10.476;2023-03-01T03:00:42;102601.94;;;-1.24;69.24
75585;BME280;64162;53.508;10.476;2023-03-01T03:03:16;102607.09;;;-1.28;69.30
75585;BME280;64162;53.508;10.476;2023-03-01T03:05:44;102601.94;;;-1.27;69.21
75585;BME280;64162;53.508;10.476;2023-03-01T03:08:10;102606.25;;;-1.24;69.59
75585;BME280;64162;53.508;10.476;2023-03-01T03:10:40;102607.97;;;-1.25;69.36
75585;BME280;64162;53.508;10.476;2023-03-01T03:13:08;102603.66;;;-1.21;70.13
75585;BME280;64162;53.508;10.476;2023-03-01T03:15:36;102599.34;;;-1.16;70.14
75585;BME280;64162;53.508;10.476;2023-03-01T03:18:08;102595.88;;;-1.14;70.41
75585;BME280;64162;53.508;10.476;2023-03-01T03:20:35;102592.41;;;-1.08;70.47
75585;BME280;64162;53.508;10.476;2023-03-01T03:23:03;102603.63;;;-0.98;70.43
75585;BME280;64162;53.508;10.476;2023-03-01T03:25:29;102591.56;;;-0.93;70.53
75585;BME280;64162;53.508;10.476;2023-03-01T03:27:56;102591.53;;;-0.83;71.31
75585;BME280;64162;53.508;10.476;2023-03-01T03:30:29;102594.97;;;-0.70;71.00
75585;BME280;64162;53.508;10.476;2023-03-01T03:32:57;102591.44;;;-0.49;71.67
75585;BME280;64162;53.508;10.476;2023-03-01T03:35:29;102587.94;;;-0.33;71.98
75585;BME280;64162;53.508;10.476;2023-03-01T03:38:01;102588.72;;;-0.17;72.17
75585;BME280;64162;53.508;10.476;2023-03-01T03:40:39;102584.34;;;-0.02;72.17
75585;BME280;64162;53.508;10.476;2023-03-01T03:43:11;102589.41;;;0.14;72.02
75585;BME280;64162;53.508;10.476;2023-03-01T03:45:39;102586.72;;;0.29;72.67
75585;BME280;64162;53.508;10.476;2023-03-01T03:48:07;102582.31;;;0.43;71.76
75585;BME280;64162;53.508;10.476;2023-03-01T03:50:34;102581.38;;;0.56;71.57
75585;BME280;64162;53.508;10.476;2023-03-01T03:53:03;102565.63;;;0.73;72.01
75585;BME280;64162;53.508;10.476;2023-03-01T03:55:30;102573.34;;;0.82;71.62
75585;BME280;64162;53.508;10.476;2023-03-01T03:57:58;102578.44;;;0.93;71.61
75585;BME280;64162;53.508;10.476;2023-03-01T04:00:28;102577.50;;;1.02;71.39
75585;BME280;64162;53.508;10.476;2023-03-01T04:02:55;102579.16;;;1.10;70.99
75585;BME280;64162;53.508;10.476;2023-03-01T04:05:24;102578.16;;;1.20;71.38
75585;BME280;64162;53.508;10.476;2023-03-01T04:07:51;102574.63;;;1.27;70.61
75585;BME280;64162;53.508;10.476;2023-03-01T04:10:32;102580.59;;;1.34;70.67
75585;BME280;64162;53.508;10.476;2023-03-01T04:12:59;102573.59;;;1.42;70.85
75585;BME280;64162;53.508;10.476;2023-03-01T04:15:26;102566.56;;;1.50;70.34
75585;BME280;64162;53.508;10.476;2023-03-01T04:17:54;102571.72;;;1.55;70.18
75585;BME280;64162;53.508;10.476;2023-03-01T04:20:24;102574.22;;;1.64;69.80
75585;BME280;64162;53.508;10.476;2023-03-01T04:23:04;102572.31;;;1.74;69.94
75585;BME280;64162;53.508;10.476;2023-03-01T04:25:54;102569.66;;;1.78;70.28
75585;BME280;64162;53.508;10.476;2023-03-01T04:28:24;102573.06;;;1.85;69.57
75585;BME280;64162;53.508;10.476;2023-03-01T04:30:55;102562.59;;;1.89;69.47
75585;BME280;64162;53.508;10.476;2023-03-01T04:33:24;102559.91;;;1.97;69.56
75585;BME280;64162;53.508;10.476;2023-03-01T04:35:51;102560.75;;;1.99;69.43
75585;BME280;64162;53.508;10.476;2023-03-01T04:38:19;102558.94;;;2.04;68.89
75585;BME280;64162;53.508;10.476;2023-03-01T04:40:45;102567.53;;;2.09;69.65
75585;BME280;64162;53.508;10.476;2023-03-01T04:43:12;102567.50;;;2.11;69.25
75585;BME280;64162;53.508;10.476;2023-03-01T04:45:42;102558.75;;;2.18;69.69
75585;BME280;64162;53.508;10.476;2023-03-01T04:48:09;102557.81;;;2.22;69.68
75585;BME280;64162;53.508;10.476;2023-03-01T04:50:36;102558.56;;;2.30;68.83
75585;BME280;64162;53.508;10.476;2023-03-01T04:53:02;102556.66;;;2.40;69.23
75585;BME280;64162;53.508;10.476;2023-03-01T04:55:29;102555.44;;;2.07;68.10
75585;BME280;64162;53.508;10.476;2023-03-01T04:57:56;102548.53;;;2.04;68.00
75585;BME280;64162;53.508;10.476;2023-03-01T05:00:22;102548.16;;;2.30;67.30
75585;BME280;64162;53.508;10.476;2023-03-01T05:05:28;102544.41;;;2.46;67.53
75585;BME280;64162;53.508;10.476;2023-03-01T05:07:58;102549.59;;;2.48;68.03
75585;BME280;64162;53.508;10.476;2023-03-01T05:10:26;102553.84;;;2.53;68.33
75585;BME280;64162;53.508;10.476;2023-03-01T05:12:52;102554.56;;;2.61;67.37
75585;BME280;64162;53.508;10.476;2023-03-01T05:15:19;102546.69;;;2.66;67.96
75585;BME280;64162;53.508;10.476;2023-03-01T05:17:48;102557.03;;;2.71;67.71
75585;BME280;64162;53.508;10.476;2023-03-01T05:20:15;102549.16;;;2.74;67.53
75585;BME280;64162;53.508;10.476;2023-03-01T05:22:41;102547.50;;;2.70;67.14
75585;BME280;64162;53.508;10.476;2023-03-01T05:25:08;102548.38;;;2.70;66.78
75585;BME280;64162;53.508;10.476;2023-03-01T05:27:35;102552.59;;;2.76;67.27
75585;BME280;64162;53.508;10.476;2023-03-01T05:30:02;102542.19;;;2.76;67.15
75585;BME280;64162;53.508;10.476;2023-03-01T05:32:50;102546.44;;;2.81;66.81
75585;BME280;64162;53.508;10.476;2023-03-01T05:35:22;102555.03;;;2.86;66.48
75585;BME280;64162;53.508;10.476;2023-03-01T05:37:50;102548.84;;;2.90;66.83
75585;BME280;64162;53.508;10.476;2023-03-01T05:40:19;102547.91;;;2.94;66.81
75585;BME280;64162;53.508;10.476;2023-03-01T05:42:48;102545.25;;;2.97;66.81
75585;BME280;64162;53.508;10.476;2023-03-01T05:45:16;102547.84;;;2.99;67.07
75585;BME280;64162;53.508;10.476;2023-03-01T05:47:44;102544.38;;;2.98;66.54
75585;BME280;64162;53.508;10.476;2023-03-01T05:50:22;102536.50;;;3.02;66.13
75585;BME280;64162;53.508;10.476;2023-03-01T05:53:00;102529.53;;;3.04;65.85
75585;BME280;64162;53.508;10.476;2023-03-01T05:55:28;102531.19;;;3.08;66.37
75585;BME280;64162;53.508;10.476;2023-03-01T05:57:58;102527.81;;;3.03;65.82
75585;BME280;64162;53.508;10.476;2023-03-01T06:00:26;102536.38;;;3.08;66.09
75585;BME280;64162;53.508;10.476;2023-03-01T06:02:53;102542.41;;;3.11;66.03
75585;BME280;64162;53.508;10.476;2023-03-01T06:05:20;102545.84;;;3.13;66.31
75585;BME280;64162;53.508;10.476;2023-03-01T06:07:47;102536.16;;;3.20;65.97
75585;BME280;64162;53.508;10.476;2023-03-01T06:10:15;102543.16;;;3.18;66.00
75585;BME280;64162;53.508;10.476;2023-03-01T06:12:42;102536.16;;;3.20;65.86
75585;BME280;64162;53.508;10.476;2023-03-01T06:15:11;102532.59;;;3.25;66.44
75585;BME280;64162;53.508;10.476;2023-03-01T06:17:39;102534.28;;;3.28;66.40
75585;BME280;64162;53.508;10.476;2023-03-01T06:20:21;102540.22;;;3.35;65.86
75585;BME280;64162;53.508;10.476;2023-03-01T06:22:48;102538.38;;;3.40;65.14
75585;BME280;64162;53.508;10.476;2023-03-01T06:25:17;102531.34;;;3.45;64.51
75585;BME280;64162;53.508;10.476;2023-03-01T06:27:45;102535.50;;;3.52;64.40
75585;BME280;64162;53.508;10.476;2023-03-01T06:30:13;102527.59;;;3.56;64.65
75585;BME280;64162;53.508;10.476;2023-03-01T06:32:41;102527.47;;;3.62;65.18
75585;BME280;64162;53.508;10.476;2023-03-01T06:35:12;102532.63;;;3.65;64.67
75585;BME280;64162;53.508;10.476;2023-03-01T06:37:39;102541.28;;;3.66;64.56
75585;BME280;64162;53.508;10.476;2023-03-01T06:40:07;102541.28;;;3.66;63.59
75585;BME280;64162;53.508;10.476;2023-03-01T06:42:35;102534.06;;;3.79;64.08
75585;BME280;64162;53.508;10.476;2023-03-01T06:45:03;102533.84;;;3.89;64.49
75585;BME280;64162;53.508;10.476;2023-03-01T06:47:29;102539.88;;;3.91;64.11
75585;BME280;64162;53.508;10.476;2023-03-01T06:49:56;102538.03;;;3.96;64.34
75585;BME280;64162;53.508;10.476;2023-03-01T06:52:22;102537.88;;;4.04;64.41
75585;BME280;64162;53.508;10.476;2023-03-01T06:54:49;102541.13;;;4.12;64.08
75585;BME280;64162;53.508;10.476;2023-03-01T06:57:15;102540.91;;;4.21;63.90
75585;BME280;64162;53.508;10.476;2023-03-01T06:59:42;102543.31;;;4.30;63.71
75585;BME280;64162;53.508;10.476;2023-03-01T07:02:12;102538.03;;;4.34;62.85
75585;BME280;64162;53.508;10.476;2023-03-01T07:04:41;102541.16;;;4.48;63.24
75585;BME280;64162;53.508;10.476;2023-03-01T07:07:10;102528.78;;;4.56;62.21
75585;BME280;64162;53.508;10.476;2023-03-01T07:09:37;102518.00;;;4.68;61.85
75585;BME280;64162;53.508;10.476;2023-03-01T07:12:04;102529.97;;;4.77;61.68
75585;BME280;64162;53.508;10.476;2023-03-01T07:14:31;102523.50;;;4.91;62.08
75585;BME280;64162;53.508;10.476;2023-03-01T07:16:58;102522.28;;;5.05;61.84
75585;BME280;64162;53.508;10.476;2023-03-01T07:19:24;102521.88;;;5.20;61.28
75585;BME280;64162;53.508;10.476;2023-03-01T07:21:51;102518.16;;;5.27;61.08
75585;BME280;64162;53.508;10.476;2023-03-01T07:24:17;102522.56;;;5.25;60.47
75585;BME280;64162;53.508;10.476;2023-03-01T07:26:48;102512.88;;;5.28;60.00
75585;BME280;64162;53.508;10.476;2023-03-01T07:29:15;102519.25;;;5.49;60.63
75585;BME280;64162;53.508;10.476;2023-03-01T07:31:42;102517.97;;;5.64;59.46
75585;BME280;64162;53.508;10.476;2023-03-01T07:34:09;102524.78;;;5.70;59.52
75585;BME280;64162;53.508;10.476;2023-03-01T07:36:37;102525.50;;;5.75;59.61
75585;BME280;64162;53.508;10.476;2023-03-01T07:39:04;102528.56;;;5.87;58.76
75585;BME280;64162;53.508;10.476;2023-03-01T07:41:30;102522.03;;;6.02;58.32
75585;BME280;64162;53.508;10.476;2023-03-01T07:43:57;102521.53;;;6.19;58.57
75585;BME280;64162;53.508;10.476;2023-03-01T07:46:23;102506.91;;;6.38;58.15
75585;BME280;64162;53.508;10.476;2023-03-01T07:48:50;102518.69;;;6.51;58.25
75585;BME280;64162;53.508;10.476;2023-03-01T07:51:16;102512.41;;;6.57;57.47
75585;BME280;64162;53.508;10.476;2023-03-01T07:53:46;102508.22;;;6.51;57.35
75585;BME280;64162;53.508;10.476;2023-03-01T07:56:14;102524.44;;;6.62;56.65
75585;BME280;64162;53.508;10.476;2023-03-01T07:58:42;102523.66;;;6.85;56.00
75585;BME280;64162;53.508;10.476;2023-03-01T08:01:12;102529.19;;;7.01;56.80
75585;BME280;64162;53.508;10.476;2023-03-01T08:03:39;102533.84;;;7.18;56.56
75585;BME280;64162;53.508;10.476;2023-03-01T08:06:08;102538.53;;;7.33;56.50
75585;BME280;64162;53.508;10.476;2023-03-01T08:08:35;102537.31;;;7.43;55.28
75585;BME280;64162;53.508;10.476;2023-03-01T08:11:04;102532.44;;;7.56;54.96
75585;BME280;64162;53.508;10.476;2023-03-01T08:13:32;102543.16;;;7.73;53.91
75585;BME280;64162;53.508;10.476;2023-03-01T08:16:13;102542.81;;;7.82;53.67
75585;BME280;64162;53.508;10.476;2023-03-01T08:18:41;102544.22;;;7.91;52.88
75585;BME280;64162;53.508;10.476;2023-03-01T08:21:13;102542.22;;;7.98;53.33
75585;BME280;64162;53.508;10.476;2023-03-01T08:23:40;102550.50;;;8.09;53.38
75585;BME280;64162;53.508;10.476;2023-03-01T08:26:10;102547.88;;;8.09;52.15
75585;BME280;64162;53.508;10.476;2023-03-01T08:28:37;102540.75;;;8.12;52.00
75585;BME280;64162;53.508;10.476;2023-03-01T08:31:27;102539.47;;;8.01;52.31
75585;BME280;64162;53.508;10.476;2023-03-01T08:33:57;102527.03;;;8.06;52.86
75585;BME280;64162;53.508;10.476;2023-03-01T08:36:26;102536.28;;;8.14;53.03
75585;BME280;64162;53.508;10.476;2023-03-01T08:38:53;102534.38;;;8.41;52.79
75585;BME280;64162;53.508;10.476;2023-03-01T08:41:20;102526.72;;;8.57;52.51
75585;BME280;64162;53.508;10.476;2023-03-01T08:43:47;102534.31;;;8.83;51.89
75585;BME280;64162;53.508;10.476;2023-03-01T08:46:14;102529.78;;;9.07;51.88
75585;BME280;64162;53.508;10.476;2023-03-01T08:48:40;102529.06;;;9.24;50.43
75585;BME280;64162;53.508;10.476;2023-03-01T08:51:11;102527.66;;;9.54;50.51
75585;BME280;64162;53.508;10.476;2023-03-01T08:53:39;102534.63;;;9.74;49.77
75585;BME280;64162;53.508;10.476;2023-03-01T08:56:06;102532.75;;;9.95;49.46
75585;BME280;64162;53.508;10.476;2023-03-01T08:58:33;102535.16;;;10.18;48.76
75585;BME280;64162;53.508;10.476;2023-03-01T09:01:00;102529.88;;;10.37;48.09
75585;BME280;64162;53.508;10.476;2023-03-01T09:03:27;102530.66;;;10.39;47.89
75585;BME280;64162;53.508;10.476;2023-03-01T09:06:00;102532.97;;;10.28;48.23
75585;BME280;64162;53.508;10.476;2023-03-01T09:08:27;102534.25;;;10.19;47.40
75585;BME280;64162;53.508;10.476;2023-03-01T09:10:54;102531.88;;;10.32;47.60
75585;BME280;64162;53.508;10.476;2023-03-01T09:13:21;102533.19;;;10.23;47.72
75585;BME280;64162;53.508;10.476;2023-03-01T09:15:51;102527.00;;;10.42;47.96
75585;BME280;64162;53.508;10.476;2023-03-01T09:18:18;102531.09;;;10.11;48.73
75585;BME280;64162;53.508;10.476;2023-03-01T09:20:44;102526.00;;;10.44;47.40
75585;BME280;64162;53.508;10.476;2023-03-01T09:23:11;102529.03;;;10.54;47.93
75585;BME280;64162;53.508;10.476;2023-03-01T09:25:37;102524.69;;;10.17;48.13
75585;BME280;64162;53.508;10.476;2023-03-01T09:28:04;102524.34;;;10.42;48.14
75585;BME280;64162;53.508;10.476;2023-03-01T09:30:30;102518.94;;;10.28;48.73
75585;BME280;64162;53.508;10.476;2023-03-01T09:32:57;102524.97;;;10.11;48.64
75585;BME280;64162;53.508;10.476;2023-03-01T09:35:24;102524.44;;;9.85;49.36
75585;BME280;64162;53.508;10.476;2023-03-01T09:37:51;102525.56;;;9.99;49.92
75585;BME280;64162;53.508;10.476;2023-03-01T09:40:28;102525.06;;;9.90;49.86
75585;BME280;64162;53.508;10.476;2023-03-01T09:43:02;102519.53;;;9.97;50.66
75585;BME280;64162;53.508;10.476;2023-03-01T09:45:36;102529.41;;;9.91;50.69
75585;BME280;64162;53.508;10.476;2023-03-01T09:48:06;102526.66;;;9.57;51.15
75585;BME280;64162;53.508;10.476;2023-03-01T09:50:41;102535.50;;;9.75;52.16
75585;BME280;64162;53.508;10.476;2023-03-01T09:53:16;102533.06;;;9.51;51.94
75585;BME280;64162;53.508;10.476;2023-03-01T09:55:46;102527.69;;;9.34;52.83
75585;BME280;64162;53.508;10.476;2023-03-01T10:01:19;102532.13;;;9.52;52.47
75585;BME280;64162;53.508;10.476;2023-03-01T10:04:03;102545.34;;;9.51;53.16
75585;BME280;64162;53.508;10.476;2023-03-01T10:06:31;102537.09;;;9.40;52.36
75585;BME280;64162;53.508;10.476;2023-03-01T10:11:37;102530.47;;;9.31;53.11
75585;BME280;64162;53.508;10.476;2023-03-01T10:14:16;102529.63;;;9.49;52.90
75585;BME280;64162;53.508;10.476;2023-03-01T10:16:48;102529.94;;;9.62;53.59
75585;BME280;64162;53.508;10.476;2023-03-01T10:19:41;102531.59;;;9.25;53.21
75585;BME280;64162;53.508;10.476;2023-03-01T10:22:19;102531.28;;;9.52;53.68
75585;BME280;64162;53.508;10.476;2023-03-01T10:24:48;102520.22;;;9.25;53.73
75585;BME280;64162;53.508;10.476;2023-03-01T10:29:49;102524.84;;;9.20;53.97
75585;BME280;64162;53.508;10.476;2023-03-01T10:32:19;102523.06;;;9.20;54.40
75585;BME280;64162;53.508;10.476;2023-03-01T10:34:50;102521.66;;;9.32;54.29
75585;BME280;64162;53.508;10.476;2023-03-01T10:37:19;102520.44;;;9.20;54.25
75585;BME280;64162;53.508;10.476;2023-03-01T10:40:08;102510.25;;;9.13;54.45
75585;BME280;64162;53.508;10.476;2023-03-01T10:42:39;102517.03;;;9.18;54.45
75585;BME280;64162;53.508;10.476;2023-03-01T10:45:35;102507.16;;;9.23;54.61
75585;BME280;64162;53.508;10.476;2023-03-01T10:50:35;102499.69;;;8.74;56.09
75585;BME280;64162;53.508;10.476;2023-03-01T10:53:04;102499.50;;;8.78;55.58
75585;BME280;64162;53.508;10.476;2023-03-01T10:55:33;102497.59;;;8.82;55.59
75585;BME280;64162;53.508;10.476;2023-03-01T10:58:21;102497.25;;;8.69;56.74
75585;BME280;64162;53.508;10.476;2023-03-01T11:00:55;102494.44;;;8.94;56.11
75585;BME280;64162;53.508;10.476;2023-03-01T11:03:24;102486.56;;;8.74;56.37
75585;BME280;64162;53.508;10.476;2023-03-01T11:06:04;102492.47;;;8.99;56.45
75585;BME280;64162;53.508;10.476;2023-03-01T11:08:45;102497.84;;;8.76;56.36
75585;BME280;64162;53.508;10.476;2023-03-01T11:13:52;102502.25;;;8.96;56.30
75585;BME280;64162;53.508;10.476;2023-03-01T11:16:31;102497.19;;;8.71;56.65
75585;BME280;64162;53.508;10.476;2023-03-01T11:19:19;102494.09;;;9.02;56.40
75585;BME280;64162;53.508;10.476;2023-03-01T11:24:45;102493.06;;;9.24;55.71
75585;BME280;64162;53.508;10.476;2023-03-01T11:27:20;102486.53;;;9.14;55.57
75585;BME280;64162;53.508;10.476;2023-03-01T11:30:03;102490.38;;;9.45;55.83
75585;BME280;64162;53.508;10.476;2023-03-01T11:32:38;102488.94;;;9.38;55.36
75585;BME280;64162;53.508;10.476;2023-03-01T11:35:15;102485.69;;;9.33;55.32
75585;BME280;64162;53.508;10.476;2023-03-01T11:38:09;102478.59;;;9.53;55.11
75585;BME280;64162;53.508;10.476;2023-03-01T11:40:55;102478.50;;;9.55;55.29
75585;BME280;64162;53.508;10.476;2023-03-01T11:49:28;102470.97;;;9.66;55.57
75585;BME280;64162;53.508;10.476;2023-03-01T11:52:52;102468.06;;;9.72;54.44
75585;BME280;64162;53.508;10.476;2023-03-01T12:03:55;102458.09;;;9.96;54.83
75585;BME280;64162;53.508;10.476;2023-03-01T12:06:29;102454.94;;;10.07;54.54
75585;BME280;64162;53.508;10.476;2023-03-01T12:17:03;102451.81;;;9.81;52.99
75585;BME280;64162;53.508;10.476;2023-03-01T12:20:02;102444.53;;;9.86;53.99
75585;BME280;64162;53.508;10.476;2023-03-01T12:28:05;102429.91;;;9.81;53.35
75585;BME280;64162;53.508;10.476;2023-03-01T12:30:58;102427.00;;;10.04;53.32
75585;BME280;64162;53.508;10.476;2023-03-01T12:33:49;102429.41;;;10.09;53.61
75585;BME280;64162;53.508;10.476;2023-03-01T12:36:40;102422.72;;;10.02;53.18
75585;BME280;64162;53.508;10.476;2023-03-01T12:39:25;102416.97;;;9.93;52.86
75585;BME280;64162;53.508;10.476;2023-03-01T12:44:44;102403.97;;;9.90;53.35
75585;BME280;64162;53.508;10.476;2023-03-01T12:52:56;102397.63;;;9.94;53.86
75585;BME280;64162;53.508;10.476;2023-03-01T12:55:33;102394.00;;;10.14;53.80
75585;BME280;64162;53.508;10.476;2023-03-01T12:58:07;102388.44;;;10.38;52.84
75585;BME280;64162;53.508;10.476;2023-03-01T13:00:49;102386.78;;;10.18;53.00
75585;BME280;64162;53.508;10.476;2023-03-01T13:06:15;102380.13;;;9.93;53.81
75585;BME280;64162;53.508;10.476;2023-03-01T13:08:56;102385.56;;;10.08;53.72
75585;BME280;64162;53.508;10.476;2023-03-01T13:11:26;102380.13;;;10.11;53.94
75585;BME280;64162;53.508;10.476;2023-03-01T13:16:55;102379.19;;;10.46;52.93
75585;BME280;64162;53.508;10.476;2023-03-01T13:19:24;102375.97;;;10.24;53.07
75585;BME280;64162;53.508;10.476;2023-03-01T13:21:52;102373.16;;;10.10;53.30
75585;BME280;64162;53.508;10.476;2023-03-01T13:24:42;102376.84;;;10.24;52.60
75585;BME280;64162;53.508;10.476;2023-03-01T13:27:21;102370.47;;;10.29;52.86
75585;BME280;64162;53.508;10.476;2023-03-01T13:29:53;102375.19;;;10.39;52.52
75585;BME280;64162;53.508;10.476;2023-03-01T13:32:30;102368.16;;;10.40;51.95
75585;BME280;64162;53.508;10.476;2023-03-01T13:35:47;102365.22;;;10.62;51.60
75585;BME280;64162;53.508;10.476;2023-03-01T13:38:47;102363.50;;;10.61;51.58
75585;BME280;64162;53.508;10.476;2023-03-01T13:41:16;102359.47;;;10.38;50.37
75585;BME280;64162;53.508;10.476;2023-03-01T13:43:44;102362.03;;;10.39;49.40
75585;BME280;64162;53.508;10.476;2023-03-01T13:46:17;102360.19;;;10.57;49.51
75585;BME280;64162;53.508;10.476;2023-03-01T13:48:51;102360.97;;;10.42;49.02
75585;BME280;64162;53.508;10.476;2023-03-01T13:51:23;102362.75;;;10.58;49.53
75585;BME280;64162;53.508;10.476;2023-03-01T13:53:53;102363.50;;;10.28;48.84
75585;BME280;64162;53.508;10.476;2023-03-01T13:56:27;102355.56;;;10.45;48.70
75585;BME280;64162;53.508;10.476;2023-03-01T14:01:55;102344.13;;;10.29;48.61
75585;BME280;64162;53.508;10.476;2023-03-01T14:04:28;102343.75;;;10.36;48.05
75585;BME280;64162;53.508;10.476;2023-03-01T14:07:21;102342.50;;;10.26;48.77
75585;BME280;64162;53.508;10.476;2023-03-01T14:09:52;102347.81;;;10.42;48.12
75585;BME280;64162;53.508;10.476;2023-03-01T14:15:18;102329.50;;;10.56;48.13
75585;BME280;64162;53.508;10.476;2023-03-01T14:18:10;102321.91;;;10.34;47.49
75585;BME280;64162;53.508;10.476;2023-03-01T14:20:44;102318.66;;;10.29;47.70